Time;durP1;ratioP1;P1;durP2;ratioP2;P2;SDS_P1;SDS_P2;PMS_P1;PMS_P2;Temp;Humidity;BMP_temperature;BMP_pressure;BME280_temperature;BME280_humidity;BME280_pressure;Samples;Min_cycle;Max_cycle;Signal;HPM_P1;HPM_P2
2022/06/06 00:01:49;;;;;;;5.40;2.70;;;12.60;99.90;;;;;;5054121;28;20116;-87
2022/06/06 00:04:16;;;;;;;5.07;2.60;;;12.60;99.90;;;;;;5054161;28;20040;-90
2022/06/06 00:06:43;;;;;;;6.85;2.50;;;12.60;99.90;;;;;;5052754;28;20494;-87
2022/06/06 00:09:10;;;;;;;6.80;2.83;;;12.60;99.90;;;;;;5054276;28;20600;-88
2022/06/06 00:11:36;;;;;;;9.40;3.08;;;12.60;99.90;;;;;;5053950;28;20024;-88
2022/06/06 00:14:02;;;;;;;3.63;1.92;;;12.50;99.90;;;;;;5054155;28;20104;-87
2022/06/06 00:16:29;;;;;;;8.02;3.30;;;12.60;99.90;;;;;;5053818;28;20414;-87
2022/06/06 00:18:55;;;;;;;6.57;2.08;;;12.70;99.90;;;;;;5054093;28;20017;-90
2022/06/06 00:21:20;;;;;;;3.90;2.38;;;12.70;99.90;;;;;;5054015;28;20033;-88
2022/06/06 00:23:46;;;;;;;5.60;2.15;;;12.80;99.90;;;;;;5053859;28;20025;-87
2022/06/06 00:26:15;;;;;;;5.85;2.00;;;12.80;99.90;;;;;;5053865;28;20063;-88
2022/06/06 00:28:45;;;;;;;5.90;1.95;;;12.80;99.90;;;;;;5053861;28;20021;-87
2022/06/06 00:36:41;;;;;;;4.20;1.98;;;12.90;99.90;;;;;;5054535;28;20040;-88
2022/06/06 00:39:09;;;;;;;5.30;2.03;;;12.90;99.90;;;;;;5054331;28;20028;-89
2022/06/06 00:41:40;;;;;;;4.82;2.38;;;12.80;99.90;;;;;;5053948;28;20060;-92
2022/06/06 00:44:08;;;;;;;5.50;2.42;;;12.90;99.90;;;;;;5052623;28;20021;-88
2022/06/06 00:46:35;;;;;;;5.97;2.20;;;12.90;99.90;;;;;;5053651;28;20021;-94
2022/06/06 00:49:02;;;;;;;6.03;1.90;;;12.90;99.90;;;;;;5053908;28;20423;-88
2022/06/06 00:51:31;;;;;;;3.47;2.10;;;12.90;99.90;;;;;;5036298;28;20025;-90
2022/06/06 00:53:58;;;;;;;5.70;2.20;;;12.90;99.90;;;;;;5054260;28;20024;-90
2022/06/06 00:56:25;;;;;;;6.65;2.28;;;13.00;99.90;;;;;;5053684;28;20051;-91
2022/06/06 00:58:59;;;;;;;5.88;2.15;;;12.90;99.90;;;;;;5053821;28;20489;-92
2022/06/06 01:01:26;;;;;;;5.88;2.00;;;13.00;99.90;;;;;;5053217;28;20508;-90
2022/06/06 01:03:55;;;;;;;4.07;2.53;;;13.00;99.90;;;;;;5053337;28;20017;-90
2022/06/06 01:06:22;;;;;;;3.00;1.95;;;12.90;99.90;;;;;;5053226;28;20024;-89
2022/06/06 01:08:50;;;;;;;4.95;2.38;;;12.90;99.90;;;;;;5053790;28;20104;-87
2022/06/06 01:11:16;;;;;;;4.35;1.90;;;12.90;99.90;;;;;;5052747;28;20029;-90
2022/06/06 01:13:45;;;;;;;6.28;2.15;;;12.90;99.90;;;;;;5052909;28;20639;-88
2022/06/06 01:16:22;;;;;;;6.18;2.45;;;12.90;99.90;;;;;;5035528;28;20025;-90
2022/06/06 01:19:16;;;;;;;7.30;2.25;;;12.90;99.90;;;;;;5053546;28;20024;-90
2022/06/06 01:21:57;;;;;;;5.78;2.05;;;12.80;99.90;;;;;;5053109;28;20068;-90
2022/06/06 01:24:50;;;;;;;7.28;2.20;;;12.80;99.90;;;;;;5053480;28;20020;-91
2022/06/06 01:27:47;;;;;;;8.77;2.25;;;12.80;99.90;;;;;;5035159;28;20067;-87
2022/06/06 01:30:20;;;;;;;4.13;1.90;;;12.80;99.90;;;;;;5052962;28;20025;-88
2022/06/06 01:32:53;;;;;;;2.80;2.22;;;12.90;99.90;;;;;;5053185;28;20096;-91
2022/06/06 01:35:25;;;;;;;5.72;2.42;;;13.00;99.90;;;;;;5052915;28;20079;-90
2022/06/06 01:37:51;;;;;;;5.28;2.35;;;13.00;99.90;;;;;;5052698;28;20025;-88
2022/06/06 01:40:18;;;;;;;5.78;2.75;;;13.00;99.90;;;;;;5052230;28;20029;-88
2022/06/06 01:43:02;;;;;;;4.70;2.30;;;12.90;99.90;;;;;;5052531;28;20029;-90
2022/06/06 01:45:40;;;;;;;4.82;2.25;;;12.90;99.90;;;;;;5035391;28;20075;-89
2022/06/06 01:48:26;;;;;;;6.45;2.30;;;12.90;99.90;;;;;;5052726;28;20025;-88
2022/06/06 01:50:52;;;;;;;3.50;1.80;;;12.90;99.90;;;;;;5034728;28;20098;-86
2022/06/06 01:53:20;;;;;;;6.80;2.17;;;12.90;99.90;;;;;;5052348;28;20478;-88
2022/06/06 01:55:49;;;;;;;5.45;2.25;;;13.00;99.90;;;;;;5051113;28;20063;-89
2022/06/06 01:58:20;;;;;;;5.40;1.77;;;13.00;99.90;;;;;;5034783;28;20090;-89
2022/06/06 02:00:46;;;;;;;5.45;2.10;;;13.00;99.90;;;;;;5052445;28;20466;-87
2022/06/06 02:03:12;;;;;;;4.10;1.60;;;13.10;99.90;;;;;;5052012;28;20033;-88
2022/06/06 02:05:39;;;;;;;7.15;2.55;;;13.10;99.90;;;;;;5052044;28;20029;-89
2022/06/06 02:08:05;;;;;;;5.18;2.13;;;13.10;99.90;;;;;;5051994;28;20113;-88
2022/06/06 02:10:31;;;;;;;3.30;2.10;;;13.00;99.90;;;;;;5051816;28;20477;-88
2022/06/06 02:12:57;;;;;;;8.00;2.47;;;13.00;99.90;;;;;;5052234;28;20227;-89
2022/06/06 02:15:25;;;;;;;8.05;2.25;;;13.00;99.90;;;;;;5051938;28;20555;-87
2022/06/06 02:17:52;;;;;;;3.05;1.88;;;13.00;99.90;;;;;;5051944;28;20025;-86
2022/06/06 02:20:20;;;;;;;7.15;2.60;;;13.00;99.90;;;;;;5052023;28;20398;-88
2022/06/06 02:22:46;;;;;;;4.30;2.03;;;13.00;99.90;;;;;;5051771;28;20417;-88
2022/06/06 02:25:13;;;;;;;4.30;2.45;;;12.90;99.90;;;;;;5034299;28;20087;-89
2022/06/06 02:27:40;;;;;;;7.65;2.80;;;12.90;99.90;;;;;;5051941;28;20025;-89
2022/06/06 02:30:10;;;;;;;6.00;2.55;;;12.90;99.90;;;;;;5051767;28;20049;-89
2022/06/06 02:32:35;;;;;;;7.10;2.05;;;12.90;99.90;;;;;;5051950;28;20104;-87
2022/06/06 02:35:01;;;;;;;2.20;1.77;;;12.90;99.90;;;;;;5052029;28;20040;-90
2022/06/06 02:37:27;;;;;;;5.55;2.30;;;12.90;99.90;;;;;;5051683;28;20025;-90
2022/06/06 02:39:53;;;;;;;2.72;2.05;;;12.90;99.90;;;;;;5052009;28;20021;-89
2022/06/06 02:42:18;;;;;;;6.72;2.45;;;13.00;99.90;;;;;;5051546;28;20486;-87
2022/06/06 02:44:44;;;;;;;3.38;1.52;;;13.10;99.90;;;;;;5051440;28;20029;-88
2022/06/06 02:47:10;;;;;;;6.03;2.30;;;13.10;99.90;;;;;;5051734;28;20091;-86
2022/06/06 02:49:36;;;;;;;6.55;2.85;;;13.10;99.90;;;;;;5051535;28;20022;-88
2022/06/06 02:52:04;;;;;;;4.35;2.00;;;13.10;99.90;;;;;;5051771;28;20068;-90
2022/06/06 02:54:30;;;;;;;3.92;1.80;;;13.10;99.90;;;;;;5052059;28;20358;-88
2022/06/06 02:56:57;;;;;;;4.30;2.05;;;13.10;99.90;;;;;;5051369;28;20017;-90
2022/06/06 02:59:25;;;;;;;6.47;2.47;;;13.10;99.90;;;;;;5033309;28;20473;-88
2022/06/06 03:01:51;;;;;;;1.83;1.38;;;13.20;99.90;;;;;;5051230;28;20119;-87
2022/06/06 03:04:18;;;;;;;7.57;2.10;;;13.30;99.90;;;;;;5033206;28;20021;-87
2022/06/06 03:07:12;;;;;;;6.38;2.22;;;13.40;99.90;;;;;;5053321;28;20029;-87
2022/06/06 03:09:48;;;;;;;7.82;2.35;;;13.40;99.90;;;;;;5055025;28;20037;-87
2022/06/06 03:12:51;;;;;;;3.92;1.88;;;13.40;99.90;;;;;;5036956;28;20028;-87
2022/06/06 03:21:53;;;;;;;5.55;2.25;;;13.50;99.90;;;;;;5054762;28;20438;-87
2022/06/06 03:24:43;;;;;;;10.23;2.30;;;13.50;99.90;;;;;;5054643;28;20025;-87
2022/06/06 03:27:27;;;;;;;8.30;2.15;;;13.60;99.90;;;;;;5054449;28;20055;-86
2022/06/06 03:30:01;;;;;;;5.60;2.38;;;13.60;99.90;;;;;;5054496;28;20025;-88
2022/06/06 03:32:36;;;;;;;11.20;2.65;;;13.60;99.90;;;;;;5055384;28;20405;-92
2022/06/06 03:35:17;;;;;;;5.57;2.38;;;13.60;99.90;;;;;;5037373;28;20025;-88
2022/06/06 03:38:03;;;;;;;5.43;2.30;;;13.60;99.90;;;;;;5037101;28;20021;-89
2022/06/06 03:40:38;;;;;;;2.40;2.05;;;13.60;99.90;;;;;;5055444;28;20025;-88
2022/06/06 03:43:14;;;;;;;6.90;2.72;;;13.60;99.90;;;;;;5055233;28;20032;-91
2022/06/06 03:45:59;;;;;;;10.32;3.20;;;13.50;99.90;;;;;;5055119;28;20021;-89
2022/06/06 03:48:49;;;;;;;3.38;2.75;;;13.40;99.90;;;;;;5054934;28;20035;-93
2022/06/06 03:51:34;;;;;;;4.38;2.40;;;13.40;99.90;;;;;;5037522;28;20025;-92
2022/06/06 03:54:14;;;;;;;4.72;2.50;;;13.40;99.90;;;;;;5055641;28;20039;-92
2022/06/06 03:56:43;;;;;;;3.53;2.30;;;13.40;99.90;;;;;;5055466;28;20032;-91
2022/06/06 03:59:10;;;;;;;6.25;2.55;;;13.40;99.90;;;;;;5037020;28;20021;-88
2022/06/06 04:01:41;;;;;;;8.52;2.47;;;13.40;99.90;;;;;;5053601;28;20051;-90
2022/06/06 04:04:07;;;;;;;6.80;2.80;;;13.40;99.90;;;;;;5054506;28;20466;-88
2022/06/06 04:06:34;;;;;;;5.82;2.63;;;13.40;99.90;;;;;;5054390;28;20087;-90
2022/06/06 04:09:00;;;;;;;5.15;2.63;;;13.40;99.90;;;;;;5037131;28;20045;-91
2022/06/06 04:11:29;;;;;;;6.68;2.70;;;13.40;99.90;;;;;;5054691;28;20117;-91
2022/06/06 04:14:07;;;;;;;6.90;2.35;;;13.50;99.90;;;;;;5054411;28;20028;-91
2022/06/06 04:16:57;;;;;;;7.25;2.60;;;13.50;99.90;;;;;;5054024;28;20444;-90
2022/06/06 04:19:47;;;;;;;7.93;2.63;;;13.50;99.90;;;;;;5052900;28;20025;-88
2022/06/06 04:23:00;;;;;;;4.65;2.70;;;13.50;99.90;;;;;;5054306;28;20497;-88
2022/06/06 04:25:35;;;;;;;5.05;2.65;;;13.50;99.90;;;;;;4993172;28;20044;-89
2022/06/06 04:28:21;;;;;;;8.73;2.25;;;13.50;99.90;;;;;;5054309;28;20029;-89
2022/06/06 04:31:00;;;;;;;8.30;2.88;;;13.50;99.90;;;;;;5054061;28;20032;-89
2022/06/06 04:33:53;;;;;;;7.25;2.70;;;13.50;99.90;;;;;;5054473;28;20044;-91
2022/06/06 04:36:42;;;;;;;9.02;2.40;;;13.50;99.90;;;;;;5054488;28;20083;-95
2022/06/06 04:39:30;;;;;;;4.95;2.67;;;13.50;99.90;;;;;;5037515;28;20113;-92
2022/06/06 04:42:07;;;;;;;3.30;2.35;;;13.50;99.90;;;;;;5054088;28;20033;-91
2022/06/06 04:44:46;;;;;;;5.30;2.20;;;13.50;99.90;;;;;;5054389;28;20029;-90
2022/06/06 04:47:26;;;;;;;6.47;2.00;;;13.40;99.90;;;;;;5053783;28;20021;-89
2022/06/06 04:49:54;;;;;;;6.50;2.55;;;13.40;99.90;;;;;;5035612;28;20021;-89
2022/06/06 04:52:22;;;;;;;2.70;2.25;;;13.40;99.90;;;;;;5052388;28;20025;-91
2022/06/06 04:54:48;;;;;;;3.55;2.17;;;13.40;99.90;;;;;;5053844;28;20017;-89
2022/06/06 04:57:17;;;;;;;3.10;2.15;;;13.40;99.90;;;;;;5035440;28;20052;-87
2022/06/06 04:59:44;;;;;;;2.35;2.15;;;13.40;99.90;;;;;;5034786;28;20032;-88
2022/06/06 05:02:11;;;;;;;2.33;2.13;;;13.50;99.90;;;;;;5052959;28;20115;-90
2022/06/06 05:04:37;;;;;;;7.65;2.25;;;13.50;99.90;;;;;;5052675;28;20130;-89
2022/06/06 05:07:27;;;;;;;2.40;2.13;;;13.50;99.90;;;;;;5053443;28;20107;-90
2022/06/06 05:10:08;;;;;;;2.97;2.78;;;13.50;99.90;;;;;;5053136;28;20517;-90
2022/06/06 05:12:40;;;;;;;3.63;2.97;;;13.50;99.90;;;;;;5035546;28;20028;-89
2022/06/06 05:15:23;;;;;;;5.95;2.33;;;13.50;99.90;;;;;;5052884;28;20374;-89
2022/06/06 05:18:21;;;;;;;6.97;2.47;;;13.50;99.90;;;;;;5052437;28;20013;-91
2022/06/06 05:21:19;;;;;;;4.68;1.90;;;13.60;99.90;;;;;;5052484;28;20043;-91
2022/06/06 05:23:56;;;;;;;5.30;2.55;;;13.60;99.90;;;;;;5052885;28;20071;-86
2022/06/06 05:26:50;;;;;;;3.88;2.55;;;13.60;99.90;;;;;;5052683;28;20079;-90
2022/06/06 05:29:24;;;;;;;5.22;2.80;;;13.70;99.90;;;;;;5052434;28;20017;-90
2022/06/06 05:31:56;;;;;;;3.38;2.50;;;13.70;99.90;;;;;;5052639;28;20029;-90
2022/06/06 05:34:28;;;;;;;2.85;2.40;;;13.80;99.90;;;;;;5052843;28;20537;-89
2022/06/06 05:37:14;;;;;;;5.13;3.17;;;13.80;99.90;;;;;;5035072;28;20090;-90
2022/06/06 05:40:04;;;;;;;6.53;2.20;;;13.80;99.90;;;;;;5052829;28;20021;-90
2022/06/06 05:43:04;;;;;;;4.88;2.40;;;13.90;99.90;;;;;;5052356;28;20055;-89
2022/06/06 05:45:49;;;;;;;3.90;2.35;;;14.00;99.90;;;;;;5052423;28;20032;-88
2022/06/06 05:48:29;;;;;;;4.68;2.70;;;14.00;99.90;;;;;;5052172;28;20514;-89
2022/06/06 05:51:22;;;;;;;5.15;2.40;;;14.10;99.90;;;;;;5052351;28;20071;-89
2022/06/06 05:53:47;;;;;;;;;;;14.20;99.90;;;;;;5034873;28;20049;-88
2022/06/06 05:56:19;;;;;;;3.78;2.40;;;14.40;99.90;;;;;;5052328;28;19951;-90
2022/06/06 05:59:19;;;;;;;4.20;2.38;;;14.50;99.90;;;;;;5052106;28;20414;-88
2022/06/06 06:02:06;;;;;;;3.95;2.25;;;14.60;99.90;;;;;;5034310;28;20091;-88
2022/06/06 06:04:54;;;;;;;3.95;2.15;;;14.70;99.90;;;;;;5052120;28;20470;-90
2022/06/06 06:07:32;;;;;;;3.08;2.80;;;14.90;99.90;;;;;;5034403;28;20115;-89
2022/06/06 06:10:29;;;;;;;2.67;2.47;;;15.00;99.90;;;;;;5034503;28;20102;-88
2022/06/06 06:13:10;;;;;;;1.92;1.80;;;15.10;99.90;;;;;;5034235;28;20110;-86
2022/06/06 06:15:41;;;;;;;3.97;2.63;;;15.10;99.90;;;;;;5052314;28;20021;-90
2022/06/06 06:18:16;;;;;;;2.75;2.55;;;15.00;99.90;;;;;;5050870;28;20023;-88
2022/06/06 06:20:52;;;;;;;3.30;2.55;;;15.00;99.90;;;;;;5051674;28;20374;-87
2022/06/06 06:23:23;;;;;;;4.75;2.90;;;15.00;99.90;;;;;;5052172;28;20108;-90
2022/06/06 06:25:49;;;;;;;5.03;3.00;;;15.10;99.90;;;;;;5033696;28;20198;-89
2022/06/06 06:28:16;;;;;;;4.60;2.88;;;15.20;99.90;;;;;;5051563;28;20262;-89
2022/06/06 06:30:57;;;;;;;3.60;2.58;;;15.20;99.90;;;;;;5051647;28;20033;-88
2022/06/06 06:33:25;;;;;;;5.00;2.90;;;15.20;99.90;;;;;;5051818;28;20025;-89
2022/06/06 06:36:09;;;;;;;4.25;2.45;;;15.20;99.90;;;;;;5051578;28;20017;-87
2022/06/06 06:38:55;;;;;;;3.65;2.88;;;15.20;99.90;;;;;;5051959;28;20032;-88
2022/06/06 06:42:00;;;;;;;3.78;2.80;;;15.10;99.90;;;;;;5052861;28;20426;-89
2022/06/06 06:44:30;;;;;;;3.03;2.72;;;15.20;99.90;;;;;;5055381;28;20032;-88
2022/06/06 06:46:58;;;;;;;7.38;2.95;;;15.30;99.90;;;;;;5055439;28;20028;-87
2022/06/06 06:49:42;;;;;;;4.72;3.00;;;15.60;99.90;;;;;;5055330;28;20481;-87
2022/06/06 06:52:29;;;;;;;3.55;2.90;;;15.60;99.90;;;;;;5053918;28;20033;-88
2022/06/06 06:55:36;;;;;;;5.63;2.92;;;15.60;99.90;;;;;;5055149;28;20487;-85
2022/06/06 06:58:26;;;;;;;3.08;2.78;;;15.70;99.90;;;;;;5044063;28;20551;-87
2022/06/06 07:01:03;;;;;;;2.65;2.45;;;15.90;99.90;;;;;;5054626;28;20025;-86
2022/06/06 07:09:57;;;;;;;3.17;2.47;;;16.00;99.90;;;;;;5054727;28;20128;-87
2022/06/06 07:12:32;;;;;;;3.08;2.67;;;15.90;99.90;;;;;;5054716;28;20382;-86
2022/06/06 07:15:08;;;;;;;3.50;2.92;;;15.90;99.90;;;;;;5054810;28;20486;-86
2022/06/06 07:17:42;;;;;;;3.95;2.72;;;16.00;99.90;;;;;;5054546;28;20029;-86
2022/06/06 07:20:10;;;;;;;2.90;2.40;;;16.00;99.90;;;;;;5054665;28;20021;-86
2022/06/06 07:25:31;;;;;;;2.65;2.45;;;15.80;99.90;;;;;;5054870;28;20047;-87
2022/06/06 07:27:57;;;;;;;3.85;2.40;;;15.80;99.90;;;;;;5054418;28;20033;-87
2022/06/06 07:30:23;;;;;;;2.55;2.35;;;15.90;99.90;;;;;;5054642;28;20074;-88
2022/06/06 07:33:07;;;;;;;3.03;2.08;;;16.00;99.90;;;;;;5054453;28;20478;-87
2022/06/06 07:35:52;;;;;;;2.08;1.95;;;16.10;99.90;;;;;;5054411;28;20025;-87
2022/06/06 07:41:27;;;;;;;2.13;1.85;;;16.20;99.90;;;;;;5053515;28;20110;-89
2022/06/06 07:44:14;;;;;;;1.83;1.70;;;16.00;99.90;;;;;;5038743;28;20108;-93
2022/06/06 07:47:06;;;;;;;1.88;1.77;;;15.90;99.90;;;;;;5039312;28;20043;-91
2022/06/06 07:49:40;;;;;;;2.30;1.88;;;16.00;99.90;;;;;;5050095;28;20021;-86
2022/06/06 07:52:34;;;;;;;2.58;2.35;;;16.10;99.90;;;;;;5036348;28;20031;-93
2022/06/06 07:55:12;;;;;;;1.90;1.65;;;16.20;99.90;;;;;;5038289;28;20100;-91
2022/06/06 07:57:45;;;;;;;1.85;1.67;;;16.40;99.90;;;;;;5025182;28;20045;-94
2022/06/06 08:00:32;;;;;;;2.42;2.10;;;16.60;99.90;;;;;;5036953;28;20029;-91
2022/06/06 08:03:09;;;;;;;1.50;1.40;;;17.00;99.90;;;;;;5037259;28;20124;-88
2022/06/06 08:05:41;;;;;;;2.10;1.83;;;17.20;99.90;;;;;;5018365;28;20087;-92
2022/06/06 08:08:16;;;;;;;;;;;17.20;99.90;;;;;;5036567;28;20029;-85
2022/06/06 08:10:44;;;;;;;2.47;1.90;;;17.20;99.90;;;;;;5007784;28;19905;-84
2022/06/06 08:13:12;;;;;;;2.65;2.33;;;17.20;99.90;;;;;;5016618;28;20037;-89
2022/06/06 08:15:59;;;;;;;1.73;1.63;;;17.20;99.90;;;;;;5017561;28;20062;-87
2022/06/06 08:18:39;;;;;;;2.30;2.10;;;17.40;99.90;;;;;;5017279;28;20037;-92
2022/06/06 08:21:40;;;;;;;3.47;2.05;;;17.40;99.90;;;;;;5016524;28;20034;-91
2022/06/06 08:24:09;;;;;;;3.25;2.33;;;17.60;99.90;;;;;;5015626;28;20427;-87
2022/06/06 08:26:38;;;;;;;2.35;1.85;;;17.90;99.90;;;;;;5020226;28;20018;-91
2022/06/06 08:29:09;;;;;;;1.80;1.65;;;18.10;99.90;;;;;;5015246;28;20387;-93
2022/06/06 08:31:35;;;;;;;3.55;1.80;;;18.10;99.90;;;;;;5017316;28;20356;-89
2022/06/06 08:34:01;;;;;;;2.63;2.17;;;18.10;99.90;;;;;;5017727;28;20033;-91
2022/06/06 08:36:48;;;;;;;2.70;1.92;;;17.90;99.90;;;;;;5016954;28;20029;-94
2022/06/06 08:39:35;;;;;;;5.95;1.95;;;18.00;99.90;;;;;;5023954;28;20034;-91
2022/06/06 08:42:10;;;;;;;4.68;1.83;;;18.20;99.90;;;;;;5019423;28;20038;-93
2022/06/06 08:44:48;;;;;;;2.17;1.85;;;18.40;99.90;;;;;;5018311;28;20499;-89
2022/06/06 08:47:29;;;;;;;2.45;1.58;;;18.30;99.90;;;;;;5036195;28;20048;-90
2022/06/06 08:53:41;;;;;;;2.13;1.50;;;18.10;99.90;;;;;;5037606;28;20048;-93
2022/06/06 08:56:28;;;;;;;3.13;1.85;;;18.00;99.90;;;;;;5018831;28;20032;-90
2022/06/06 08:59:18;;;;;;;4.38;2.00;;;17.70;99.90;;;;;;5018499;28;20024;-89
2022/06/06 09:01:59;;;;;;;2.60;2.40;;;18.00;99.90;;;;;;5020490;28;20044;-93
2022/06/06 09:04:47;;;;;;;2.20;1.80;;;18.50;99.90;;;;;;5018646;28;20044;-88
2022/06/06 09:07:34;;;;;;;4.40;1.45;;;18.80;99.90;;;;;;5018118;28;20068;-91
2022/06/06 09:10:31;;;;;;;1.55;1.45;;;19.10;99.90;;;;;;5017189;28;20071;-87
2022/06/06 09:13:28;;;;;;;6.03;2.10;;;19.40;99.90;;;;;;5018841;28;20543;-91
2022/06/06 09:16:32;;;;;;;3.85;1.75;;;19.20;99.90;;;;;;5016607;28;20470;-92
2022/06/06 09:19:35;;;;;;;1.73;1.48;;;19.20;99.90;;;;;;5018588;28;20026;-91
2022/06/06 09:22:22;;;;;;;1.75;1.23;;;19.10;99.90;;;;;;5035490;28;20038;-92
2022/06/06 09:25:09;;;;;;;5.38;1.42;;;18.70;99.90;;;;;;5017367;28;20052;-90
2022/06/06 09:28:08;;;;;;;1.65;1.38;;;18.20;99.90;;;;;;5019190;28;20022;-93
2022/06/06 09:31:11;;;;;;;1.38;1.25;;;17.90;99.90;;;;;;5035723;28;20160;-89
2022/06/06 09:33:48;;;;;;;5.70;2.78;;;17.30;99.90;;;;;;5017520;28;20025;-94
2022/06/06 09:36:38;;;;;;;5.60;1.75;;;16.90;99.90;;;;;;5017189;28;20021;-91
2022/06/06 09:39:04;;;;;;;2.55;1.50;;;16.70;99.90;;;;;;5035230;23;20018;-87
2022/06/06 09:41:40;;;;;;;5.75;1.88;;;16.40;99.90;;;;;;5032782;28;20056;-86
2022/06/06 09:44:25;;;;;;;3.45;1.80;;;16.20;99.90;;;;;;5052133;28;20412;-84
2022/06/06 09:47:26;;;;;;;4.55;1.75;;;16.00;99.90;;;;;;5052250;28;20036;-84
2022/06/06 09:50:36;;;;;;;3.50;1.43;;;15.80;99.90;;;;;;5051920;28;20078;-84
2022/06/06 09:53:26;;;;;;;4.50;1.42;;;15.90;99.90;;;;;;5034333;28;20060;-85
2022/06/06 09:59:10;;;;;;;4.88;1.20;;;16.20;99.90;;;;;;5051813;28;20032;-83
2022/06/06 10:01:47;;;;;;;3.47;1.40;;;16.80;99.90;;;;;;5033924;28;20041;-82
2022/06/06 10:04:34;;;;;;;4.22;1.40;;;17.90;99.90;;;;;;5033998;28;20027;-82
2022/06/06 10:07:26;;;;;;;4.97;1.17;;;18.20;99.90;;;;;;5052007;28;20056;-83
2022/06/06 10:10:13;;;;;;;5.78;1.52;;;17.80;99.90;;;;;;5051478;28;20021;-84
2022/06/06 10:13:09;;;;;;;8.30;1.63;;;17.30;99.90;;;;;;5051332;28;20064;-84
2022/06/06 10:15:52;;;;;;;7.13;1.42;;;16.90;99.90;;;;;;5033073;28;20029;-85
2022/06/06 10:18:59;;;;;;;5.20;1.58;;;16.70;99.90;;;;;;5051684;28;20021;-84
2022/06/06 10:22:02;;;;;;;3.95;1.30;;;16.40;99.90;;;;;;5017761;28;20631;-84
2022/06/06 10:24:49;;;;;;;7.65;1.60;;;16.40;99.90;;;;;;5051596;28;20028;-82
2022/06/06 10:27:33;;;;;;;2.17;1.42;;;16.40;99.90;;;;;;5051351;28;20036;-83
2022/06/06 10:30:23;;;;;;;4.75;1.40;;;16.40;99.90;;;;;;5051387;28;20060;-81
2022/06/06 10:33:17;;;;;;;3.15;1.20;;;16.40;99.90;;;;;;5051416;28;20064;-85
2022/06/06 10:36:04;;;;;;;3.42;1.35;;;16.50;99.90;;;;;;5033530;28;20111;-80
2022/06/06 10:38:30;;;;;;;4.38;1.65;;;16.60;99.90;;;;;;5051448;28;20028;-85
2022/06/06 10:41:14;;;;;;;5.00;1.10;;;16.50;99.90;;;;;;5033454;28;20033;-84
2022/06/06 10:43:58;;;;;;;1.58;1.20;;;16.50;99.90;;;;;;5033305;28;20528;-82
2022/06/06 10:46:31;;;;;;;3.30;1.23;;;16.50;99.90;;;;;;5033505;28;20029;-82
2022/06/06 10:49:25;;;;;;;4.18;1.40;;;16.80;99.90;;;;;;5033257;28;20048;-82
2022/06/06 10:52:08;;;;;;;2.45;1.20;;;16.90;99.90;;;;;;5051177;28;20616;-83
2022/06/06 10:54:50;;;;;;;1.45;0.98;;;16.90;99.90;;;;;;5051090;28;20021;-82
2022/06/06 10:57:22;;;;;;;4.28;1.30;;;17.10;99.90;;;;;;5050878;28;20017;-86
2022/06/06 11:00:07;;;;;;;8.55;2.22;;;17.10;99.90;;;;;;5051023;28;20018;-82
2022/06/06 11:02:51;;;;;;;1.33;1.13;;;17.20;99.90;;;;;;5051166;28;20025;-85
2022/06/06 11:05:36;;;;;;;6.18;1.42;;;17.40;99.90;;;;;;5033345;28;20021;-83
2022/06/06 11:08:39;;;;;;;4.07;1.48;;;17.50;99.90;;;;;;5051036;28;20025;-84
2022/06/06 11:11:19;;;;;;;5.97;1.58;;;17.40;99.90;;;;;;5000153;28;20119;-83
2022/06/06 11:14:04;;;;;;;3.50;1.63;;;17.30;99.90;;;;;;5033070;28;20116;-85
2022/06/06 11:16:41;;;;;;;7.82;1.50;;;17.50;99.90;;;;;;5033075;28;20021;-83
2022/06/06 11:19:28;;;;;;;4.40;1.27;;;17.80;99.90;;;;;;5051009;28;20510;-83
2022/06/06 11:22:00;;;;;;;4.88;1.13;;;18.10;99.90;;;;;;5050740;28;20386;-84
2022/06/06 11:24:35;;;;;;;;;;;18.20;99.90;;;;;;5051281;28;20025;-84
2022/06/06 11:27:12;;;;;;;4.93;1.30;;;18.30;99.90;;;;;;5051606;28;19905;-81
2022/06/06 11:30:05;;;;;;;1.45;0.88;;;18.50;99.90;;;;;;5054499;28;20436;-82
2022/06/06 11:33:00;;;;;;;2.75;1.15;;;18.70;99.90;;;;;;5054567;28;20025;-80
2022/06/06 11:35:30;;;;;;;4.45;1.30;;;18.40;99.90;;;;;;5054508;28;20029;-80
2022/06/06 11:38:27;;;;;;;1.63;1.50;;;18.40;99.90;;;;;;5054166;28;20018;-81
2022/06/06 11:41:21;;;;;;;3.53;1.67;;;18.50;99.90;;;;;;5061059;23;20128;-90
2022/06/06 11:44:13;;;;;;;4.07;1.20;;;18.80;99.90;;;;;;5035788;28;20072;-91
2022/06/06 11:46:57;;;;;;;;;;;18.50;99.90;;;;;;5019188;28;20017;-90
2022/06/06 11:49:27;;;;;;;2.65;0.90;;;18.10;99.90;;;;;;5034434;28;20404;-88
2022/06/06 11:51:58;;;;;;;5.93;1.95;;;17.70;99.90;;;;;;5017367;28;20541;-91
2022/06/06 11:55:01;;;;;;;1.98;1.27;;;17.60;99.90;;;;;;5035281;28;20022;-89
2022/06/06 11:57:45;;;;;;;7.22;1.65;;;17.60;99.90;;;;;;5017753;28;20113;-89
2022/06/06 12:00:21;;;;;;;2.80;1.17;;;17.70;99.90;;;;;;5017814;28;20029;-90
2022/06/06 12:03:17;;;;;;;4.22;1.33;;;18.20;99.90;;;;;;5017274;28;20044;-89
2022/06/06 12:06:06;;;;;;;3.15;1.30;;;18.60;99.90;;;;;;5017255;28;20022;-91
2022/06/06 12:08:43;;;;;;;4.90;1.30;;;18.80;99.90;;;;;;5017161;28;20029;-89
2022/06/06 12:11:35;;;;;;;4.63;1.30;;;18.80;99.90;;;;;;5017372;28;20021;-89
2022/06/06 12:14:01;;;;;;;;;;;18.80;99.90;;;;;;5017408;28;20108;-91
2022/06/06 12:16:36;;;;;;;4.25;1.30;;;18.90;99.90;;;;;;5033431;28;19998;-90
2022/06/06 12:19:09;;;;;;;5.05;1.20;;;19.30;99.90;;;;;;5033352;28;20432;-89
2022/06/06 12:22:13;;;;;;;6.22;1.05;;;19.70;99.90;;;;;;5016122;28;20091;-90
2022/06/06 12:25:22;;;;;;;3.08;0.75;;;20.20;99.90;;;;;;5017005;28;20028;-89
2022/06/06 12:28:05;;;;;;;5.93;1.10;;;20.10;99.90;;;;;;4973350;28;20023;-89
2022/06/06 12:30:59;;;;;;;7.22;1.45;;;19.80;99.90;;;;;;5028402;28;20034;-88
2022/06/06 12:33:39;;;;;;;3.38;1.27;;;19.90;99.90;;;;;;5016695;28;20024;-90
2022/06/06 12:36:18;;;;;;;3.15;1.10;;;19.80;99.90;;;;;;5034239;28;20433;-80
2022/06/06 12:39:11;;;;;;;4.57;1.88;;;20.20;99.90;;;;;;5032680;28;20026;-88
2022/06/06 12:41:53;;;;;;;4.28;1.30;;;20.40;99.90;;;;;;5032455;28;20041;-86
2022/06/06 12:44:37;;;;;;;2.88;1.60;;;20.10;99.90;;;;;;5018570;28;20436;-88
2022/06/06 12:47:24;;;;;;;5.00;1.40;;;20.00;99.90;;;;;;5016295;28;20029;-89
2022/06/06 12:50:05;;;;;;;3.17;1.33;;;20.00;99.90;;;;;;5034016;28;20423;-87
2022/06/06 12:52:42;;;;;;;6.75;2.45;;;19.30;99.90;;;;;;5015997;28;20422;-90
2022/06/06 12:55:34;;;;;;;7.63;1.75;;;19.00;99.90;;;;;;5015709;28;20064;-88
2022/06/06 12:58:37;;;;;;;3.47;1.40;;;18.50;99.90;;;;;;5016123;28;20486;-86
2022/06/06 13:01:38;;;;;;;5.72;1.48;;;18.10;99.90;;;;;;5015096;28;20033;-87
2022/06/06 13:04:27;;;;;;;4.73;1.60;;;18.20;99.90;;;;;;5015478;28;20025;-88
2022/06/06 13:07:24;;;;;;;3.40;1.52;;;18.30;99.90;;;;;;5033085;28;20022;-89
2022/06/06 13:10:08;;;;;;;4.05;1.50;;;18.60;99.90;;;;;;5015956;28;20029;-92
2022/06/06 13:12:43;;;;;;;2.95;1.60;;;18.90;99.90;;;;;;4995848;28;20022;-87
2022/06/06 13:15:19;;;;;;;4.82;1.52;;;19.30;99.90;;;;;;4994878;28;20114;-86
2022/06/06 13:18:15;;;;;;;3.88;1.10;;;19.80;99.90;;;;;;5011359;28;20108;-89
2022/06/06 13:20:50;;;;;;;3.45;1.02;;;20.30;99.90;;;;;;5015185;28;20052;-90
2022/06/06 13:23:42;;;;;;;3.03;1.35;;;20.90;99.90;;;;;;5015044;28;20025;-89
2022/06/06 13:26:56;;;;;;;4.43;1.02;;;21.70;98.90;;;;;;5008663;28;20037;-87
2022/06/06 13:29:27;;;;;;;2.63;0.80;;;22.50;93.80;;;;;;4953785;28;20153;-89
2022/06/06 13:32:32;;;;;;;4.47;1.30;;;23.00;89.60;;;;;;4951010;28;20023;-90
2022/06/06 13:34:58;;;;;;;4.35;1.05;;;23.50;83.60;;;;;;4975219;28;20040;-87
2022/06/06 13:37:59;;;;;;;4.88;0.82;;;25.00;76.70;;;;;;5011529;28;20378;-89
2022/06/06 13:40:32;;;;;;;3.03;1.08;;;26.60;64.40;;;;;;5013202;28;20120;-88
2022/06/06 13:42:57;;;;;;;3.70;1.00;;;26.30;62.60;;;;;;5012113;28;20041;-87
2022/06/06 13:45:47;;;;;;;2.70;0.75;;;26.80;63.40;;;;;;5010319;28;20030;-90
2022/06/06 13:48:38;;;;;;;6.50;1.10;;;28.70;61.90;;;;;;4998785;28;20029;-87
2022/06/06 13:51:57;;;;;;;3.55;0.50;;;30.30;55.40;;;;;;4997173;28;20053;-86
2022/06/06 13:54:33;;;;;;;3.50;0.60;;;28.80;51.80;;;;;;4990037;28;20121;-88
2022/06/06 13:57:17;;;;;;;4.28;1.25;;;26.40;56.60;;;;;;5012496;28;20045;-89
2022/06/06 14:00:07;;;;;;;7.18;1.48;;;25.20;63.70;;;;;;4994584;28;20022;-85
2022/06/06 14:02:40;;;;;;;2.70;0.85;;;24.00;65.60;;;;;;5011537;28;20509;-88
2022/06/06 14:05:30;;;;;;;3.03;0.90;;;24.20;68.50;;;;;;5010365;28;20021;-82
2022/06/06 14:08:08;;;;;;;1.88;0.73;;;26.30;62.90;;;;;;5010931;28;20537;-86
2022/06/06 14:11:00;;;;;;;5.07;0.80;;;27.00;60.00;;;;;;5010735;28;20026;-83
2022/06/06 14:13:34;;;;;;;1.85;0.73;;;27.70;57.30;;;;;;5001451;28;20475;-87
2022/06/06 14:16:01;;;;;;;5.43;0.68;;;28.50;53.80;;;;;;4994672;28;20026;-91
2022/06/06 14:18:35;;;;;;;3.42;0.93;;;29.10;53.50;;;;;;4999935;28;20032;-85
2022/06/06 14:21:03;;;;;;;3.75;0.80;;;28.90;52.80;;;;;;5013850;28;20129;-89
2022/06/06 14:23:30;;;;;;;4.75;0.93;;;28.90;52.40;;;;;;5031603;28;20025;-88